Airfield :
LOGIN :

Register | Disclaimer

   EN    FR    IT 

 










Legend :    VFR   Marginal VFR   IFR   Intensive IFR   Very Intensive IFR
Visi :
Ceiling :
>= 8 km
>= 3000ft
5 to 8 km
1000 to 3000 ft
1500m to 5 km
500 to 1000 ft
800 to 1500m
200 to 500 ft
< 800m
< 200 ft
Symbols :   Thunderstorms  Fog  Heavy snow  Heavy precipitations  Wind > 20 kt
SIGMETs :     Misc.  Thunderstorms  Icing  Turbulence  Mountain Waves  Volcanic Ashes






- Airport Elevation : 587 ft
- IATA code : XCR


LFOK - Chalons Vatry

CURRENT METAR :
  • 202230Z AUTO 21006KT 9999 SCT018 BKN100 OVC150 18/17 Q1005 TEMPO BKN004

EXPIRED METARs :
  • 202200Z AUTO 20005KT 9999 ///TCU 18/18 Q1005 BECMG BKN030
  • 202130Z AUTO 17004KT 9999 FEW021/// BKN037/// BKN048/// ///CB 18/17 Q1005 BECMG BKN030
  • 202100Z AUTO 11005KT 060V170 9999 FEW005/// SCT018/// BKN026/// ///CB 18/17 Q1005 BECMG BKN030
  • 202030Z AUTO 08011KT 6000 1300 R10/P5000 R28/1700D -RA FEW007/// SCT013/// BKN020/// ///CB 19/18 Q1005 BECMG 21010KT BKN030
  • 202000Z AUTO 36006KT 4400 +RA BR BKN014/// BKN027/// BKN037/// ///CB 19/18 Q1005 BECMG 21010KT 9999 NSW BKN030

TAF AMD TAF LFOK
Valid from the 20 at 21:00 until the 21 at 18:00 UTC


202123Z 2021/2118 05010KT 9999 BKN030
TEMPO 2021/2022 VRB15G25KT 3000 SHRA BKN007 BKN040CB
BECMG 2021/2024 21010KT
TEMPO 2100/2106 BKN004
BECMG 2116/2118 VRB02KT



MET'MAP, your aeronautical weather chart ! - Copyright ORBIFLY December 2007 - Disclaimer

ORBIFLY MET'MAP TEAM :

Programming & Development : Alexandra Zaïnal
Concept & original design : Baudouin d'Aumeries
Assistance for programming : Marc-Olivier Méhu
Technical & hardware support : Manuel Goepfert

Contact : metmap@orbifly.com




SOURCES & CREDITS :

   NOAA